createdAt,value
2022-11-19T00:02:18.161Z,98.30
2022-11-19T00:04:44.678Z,98.39
2022-11-19T00:07:13.622Z,98.46
2022-11-19T00:09:40.151Z,98.51
2022-11-19T00:12:25.331Z,98.46
2022-11-19T00:14:53.067Z,98.61
2022-11-19T00:17:19.738Z,98.67
2022-11-19T00:19:46.371Z,98.60
2022-11-19T00:22:13.274Z,98.57
2022-11-19T00:24:40.015Z,98.67
2022-11-19T00:27:06.571Z,98.71
2022-11-19T00:29:33.465Z,98.72
2022-11-19T00:31:59.972Z,98.78
2022-11-19T00:34:26.444Z,98.80
2022-11-19T00:36:52.964Z,98.85
2022-11-19T00:39:21.099Z,98.87
2022-11-19T00:41:50.064Z,98.89
2022-11-19T00:44:17.912Z,98.98
2022-11-19T00:46:44.416Z,99.01
2022-11-19T00:49:10.910Z,99.05
2022-11-19T00:51:37.495Z,99.03
2022-11-19T00:54:04.123Z,99.04
2022-11-19T00:56:30.655Z,99.07
2022-11-19T01:01:39.971Z,99.15
2022-11-19T01:04:06.763Z,99.20
2022-11-19T01:06:33.719Z,99.16
2022-11-19T01:09:00.238Z,99.09
2022-11-19T01:11:29.815Z,99.22
2022-11-19T01:13:57.112Z,99.20
2022-11-19T01:16:32.589Z,99.22
2022-11-19T01:19:00.728Z,99.12
2022-11-19T01:21:29.881Z,99.03
2022-11-19T01:23:57.275Z,99.04
2022-11-19T01:26:24.427Z,99.10
2022-11-19T01:28:51.480Z,99.10
2022-11-19T01:31:21.311Z,99.14
2022-11-19T01:33:50.693Z,99.04
2022-11-19T01:36:28.923Z,99.08
2022-11-19T01:38:57.673Z,99.08
2022-11-19T01:41:29.512Z,99.16
2022-11-19T01:44:01.660Z,99.16
2022-11-19T01:46:33.808Z,99.20
2022-11-19T01:49:13.393Z,99.20
2022-11-19T01:51:58.897Z,99.23
2022-11-19T01:54:33.312Z,99.37
2022-11-19T01:57:08.642Z,99.42
2022-11-19T01:59:35.778Z,99.38
2022-11-19T02:02:02.922Z,99.38
2022-11-19T02:07:13.272Z,99.53
2022-11-19T02:09:42.908Z,99.53
2022-11-19T02:12:35.025Z,99.57
2022-11-19T02:15:25.546Z,99.55
2022-11-19T02:18:19.077Z,99.51
2022-11-19T02:21:24.770Z,99.48
2022-11-19T02:24:08.194Z,99.39
2022-11-19T02:27:14.394Z,99.28
2022-11-19T02:30:04.430Z,99.28
2022-11-19T02:32:34.827Z,99.24
2022-11-19T02:35:11.357Z,99.30
2022-11-19T02:37:40.738Z,99.39
2022-11-19T02:40:11.350Z,99.40
2022-11-19T02:43:10.420Z,99.47
2022-11-19T02:46:07.479Z,99.49
2022-11-19T02:48:49.899Z,99.58
2022-11-19T02:51:22.791Z,99.61
2022-11-19T02:53:50.611Z,99.60
2022-11-19T02:56:48.018Z,99.51
2022-11-19T02:59:35.195Z,99.51
2022-11-19T03:02:25.329Z,99.53
2022-11-19T03:04:54.084Z,99.46
2022-11-19T03:07:22.717Z,99.46
2022-11-19T03:09:56.523Z,99.27
2022-11-19T03:13:28.212Z,99.27
2022-11-19T03:16:15.447Z,99.24
2022-11-19T03:18:47.078Z,99.21
2022-11-19T03:21:39.510Z,99.19
2022-11-19T03:24:22.963Z,98.97
2022-11-19T03:26:57.454Z,98.90
2022-11-19T03:29:26.661Z,98.70
2022-11-19T03:32:03.501Z,98.38
2022-11-19T03:34:31.764Z,98.11
2022-11-19T03:37:01.582Z,97.81
2022-11-19T03:39:29.506Z,97.79
2022-11-19T03:41:56.659Z,97.76
2022-11-19T03:44:32.634Z,97.84
2022-11-19T03:47:06.922Z,96.44
2022-11-19T03:49:37.608Z,95.51
2022-11-19T03:52:12.522Z,94.69
2022-11-19T03:54:40.202Z,94.72
2022-11-19T03:57:08.433Z,94.44
2022-11-19T03:59:40.061Z,94.48
2022-11-19T04:02:08.931Z,94.64
2022-11-19T04:04:36.920Z,94.83
2022-11-19T04:07:22.496Z,94.77
2022-11-19T04:09:49.825Z,95.06
2022-11-19T04:12:23.151Z,95.11
2022-11-19T04:14:55.183Z,95.19
2022-11-19T04:17:21.812Z,95.23
2022-11-19T04:19:48.500Z,95.26
2022-11-19T04:22:16.364Z,95.53
2022-11-19T04:24:44.884Z,95.52
2022-11-19T04:27:11.821Z,95.72
2022-11-19T04:29:38.635Z,94.96
2022-11-19T04:32:07.131Z,94.68
2022-11-19T04:34:34.875Z,94.40
2022-11-19T04:37:01.684Z,94.57
2022-11-19T04:39:28.230Z,94.48
2022-11-19T04:41:55.085Z,94.55
2022-11-19T04:44:21.585Z,94.42
2022-11-19T04:46:48.187Z,94.53
2022-11-19T04:49:14.722Z,94.78
2022-11-19T04:51:41.179Z,95.14
2022-11-19T04:54:08.757Z,95.28
2022-11-19T04:56:36.794Z,94.29
2022-11-19T04:59:04.275Z,93.78
2022-11-19T05:01:31.881Z,93.79
2022-11-19T05:03:59.724Z,93.50
2022-11-19T05:06:28.945Z,93.94
2022-11-19T05:08:55.439Z,94.20
2022-11-19T05:11:22.520Z,94.17
2022-11-19T05:13:49.583Z,94.06
2022-11-19T05:16:16.713Z,94.27
2022-11-19T05:18:43.450Z,94.72
2022-11-19T05:21:09.990Z,94.11
2022-11-19T05:23:38.050Z,94.07
2022-11-19T05:26:04.654Z,94.10
2022-11-19T05:28:39.175Z,94.43
2022-11-19T05:31:07.084Z,94.27
2022-11-19T05:33:34.441Z,93.76
2022-11-19T05:36:01.761Z,94.15
2022-11-19T05:38:28.368Z,93.82
2022-11-19T05:40:58.032Z,93.27
2022-11-19T05:43:24.671Z,93.14
2022-11-19T05:45:51.713Z,93.03
2022-11-19T05:48:19.718Z,92.49
2022-11-19T05:50:48.301Z,91.75
2022-11-19T05:53:14.798Z,91.62
2022-11-19T05:55:41.304Z,91.84
2022-11-19T05:58:07.850Z,91.36
2022-11-19T06:00:38.771Z,91.17
2022-11-19T06:03:07.545Z,91.89
2022-11-19T06:05:39.826Z,91.51
2022-11-19T06:08:07.840Z,91.49
2022-11-19T06:10:35.474Z,91.97
2022-11-19T06:13:03.227Z,92.09
2022-11-19T06:15:30.164Z,91.70
2022-11-19T06:18:03.521Z,92.05
2022-11-19T06:20:34.198Z,91.99
2022-11-19T06:23:05.253Z,91.85
2022-11-19T06:25:31.833Z,91.35
2022-11-19T06:27:58.337Z,91.28
2022-11-19T06:30:25.385Z,89.92
2022-11-19T06:32:52.620Z,90.71
2022-11-19T06:35:19.142Z,91.24
2022-11-19T06:37:46.032Z,91.10
2022-11-19T06:40:13.438Z,91.59
2022-11-19T06:42:40.026Z,91.59
2022-11-19T06:45:12.342Z,91.51
2022-11-19T06:47:40.502Z,91.23
2022-11-19T06:50:11.210Z,90.66
2022-11-19T06:52:42.290Z,91.08
2022-11-19T06:55:10.623Z,90.31
2022-11-19T06:57:37.713Z,90.92
2022-11-19T07:00:05.271Z,90.54
2022-11-19T07:02:33.317Z,90.57
2022-11-19T07:05:00.231Z,90.39
2022-11-19T07:07:27.602Z,90.37
2022-11-19T07:09:55.752Z,90.53
2022-11-19T07:12:22.199Z,90.33
2022-11-19T07:14:51.389Z,90.45
2022-11-19T07:17:25.427Z,90.45
2022-11-19T07:19:52.164Z,90.27
2022-11-19T07:22:18.692Z,89.33
2022-11-19T07:24:48.260Z,89.77
2022-11-19T07:27:16.052Z,89.39
2022-11-19T07:33:39.580Z,89.94
2022-11-19T07:36:15.314Z,90.09
2022-11-19T07:38:44.534Z,89.38
2022-11-19T07:41:30.096Z,89.00
2022-11-19T07:43:56.741Z,88.81
2022-11-19T07:46:23.677Z,88.90
2022-11-19T07:48:57.328Z,89.37
2022-11-19T07:51:24.395Z,88.97
2022-11-19T07:53:51.133Z,89.32
2022-11-19T07:56:18.383Z,87.72
2022-11-19T07:58:45.229Z,88.38
2022-11-19T08:01:13.347Z,87.95
2022-11-19T08:03:42.698Z,88.01
2022-11-19T08:06:10.059Z,89.01
2022-11-19T08:08:36.761Z,88.36
2022-11-19T08:11:08.112Z,88.11
2022-11-19T08:13:35.067Z,88.36
2022-11-19T08:16:02.466Z,88.60
2022-11-19T08:18:31.323Z,88.70
2022-11-19T08:21:06.071Z,88.35
2022-11-19T08:23:32.886Z,87.86
2022-11-19T08:25:59.808Z,88.50
2022-11-19T08:28:26.673Z,88.17
2022-11-19T08:30:53.478Z,88.42
2022-11-19T08:33:20.328Z,87.98
2022-11-19T08:35:47.230Z,88.55
2022-11-19T08:38:13.762Z,88.72
2022-11-19T08:40:40.362Z,88.35
2022-11-19T08:43:06.949Z,87.70
2022-11-19T08:45:34.769Z,88.05
2022-11-19T08:48:02.710Z,88.34
2022-11-19T08:50:29.589Z,87.23
2022-11-19T08:53:01.187Z,87.81
2022-11-19T08:55:28.285Z,87.27
2022-11-19T08:57:59.541Z,86.98
2022-11-19T09:00:26.205Z,87.19
2022-11-19T09:02:52.837Z,87.66
2022-11-19T09:05:19.341Z,87.11
2022-11-19T09:07:45.876Z,86.52
2022-11-19T09:10:12.502Z,86.96
2022-11-19T09:12:39.008Z,86.25
2022-11-19T09:15:06.102Z,86.47
2022-11-19T09:17:32.744Z,86.07
2022-11-19T09:19:59.385Z,85.91
2022-11-19T09:22:25.965Z,85.05
2022-11-19T09:24:52.567Z,85.33
2022-11-19T09:27:19.189Z,84.95
2022-11-19T09:29:45.761Z,84.81
2022-11-19T09:32:12.497Z,85.55
2022-11-19T09:34:41.662Z,84.88
2022-11-19T09:37:09.171Z,84.71
2022-11-19T09:39:35.775Z,85.52
2022-11-19T09:42:04.986Z,84.05
2022-11-19T09:44:36.333Z,83.95
2022-11-19T09:47:23.228Z,85.14
2022-11-19T09:49:56.402Z,84.23
2022-11-19T09:52:25.235Z,84.84
2022-11-19T09:54:54.226Z,84.04
2022-11-19T09:57:34.527Z,84.15
2022-11-19T10:00:02.045Z,84.04
2022-11-19T10:02:29.737Z,84.51
2022-11-19T10:04:56.794Z,84.21
2022-11-19T10:07:42.272Z,83.93
2022-11-19T10:10:20.743Z,83.71
2022-11-19T10:13:12.395Z,84.26
2022-11-19T10:15:38.983Z,84.33
2022-11-19T10:18:13.589Z,84.54
2022-11-19T10:20:48.263Z,83.59
2022-11-19T10:23:17.961Z,83.74
2022-11-19T10:25:49.089Z,83.57
2022-11-19T10:28:27.683Z,83.50
2022-11-19T10:30:55.925Z,83.02
2022-11-19T10:33:31.532Z,83.47
2022-11-19T10:36:01.696Z,83.49
2022-11-19T10:38:32.469Z,83.26
2022-11-19T10:41:04.210Z,83.77
2022-11-19T10:43:34.743Z,84.20
2022-11-19T10:46:03.215Z,83.65
2022-11-19T10:48:50.100Z,84.37
2022-11-19T10:51:23.906Z,84.49
2022-11-19T10:53:54.695Z,83.46
2022-11-19T10:56:30.262Z,83.82
2022-11-19T10:58:58.224Z,83.88
2022-11-19T11:01:38.646Z,83.75
2022-11-19T11:04:24.163Z,83.70
2022-11-19T11:07:04.250Z,83.85
2022-11-19T11:09:38.346Z,83.44
2022-11-19T11:12:37.654Z,82.65
2022-11-19T11:15:22.300Z,82.88
2022-11-19T11:17:59.769Z,82.80
2022-11-19T11:20:28.450Z,82.72
2022-11-19T11:23:11.610Z,82.80
2022-11-19T11:25:38.730Z,82.92
2022-11-19T11:28:12.392Z,82.85
2022-11-19T11:30:39.032Z,82.75
2022-11-19T11:33:24.214Z,82.79
2022-11-19T11:35:52.008Z,82.37
2022-11-19T11:38:22.554Z,82.44
2022-11-19T11:41:41.710Z,82.04
2022-11-19T11:44:02.055Z,82.56
2022-11-19T11:46:36.176Z,81.90
2022-11-19T11:49:09.713Z,81.97
2022-11-19T11:51:39.935Z,81.89
2022-11-19T11:54:17.939Z,82.10
2022-11-19T11:56:45.070Z,82.69
2022-11-19T11:59:28.288Z,81.87
2022-11-19T12:01:56.307Z,82.02
2022-11-19T12:04:23.663Z,82.26
2022-11-19T12:07:10.737Z,82.24
2022-11-19T12:09:43.632Z,82.44
2022-11-19T12:12:13.300Z,81.97
2022-11-19T12:14:52.091Z,81.80
2022-11-19T12:17:24.808Z,82.01
2022-11-19T12:19:57.392Z,82.01
2022-11-19T12:22:44.452Z,82.62
2022-11-19T12:25:30.604Z,81.89
2022-11-19T12:28:03.843Z,81.55
2022-11-19T12:30:42.299Z,81.81
2022-11-19T12:33:17.448Z,81.59
2022-11-19T12:36:04.349Z,81.43
2022-11-19T12:38:49.227Z,81.86
2022-11-19T12:41:34.592Z,81.08
2022-11-19T12:44:03.082Z,81.11
2022-11-19T12:46:43.663Z,80.86
2022-11-19T12:49:22.389Z,81.19
2022-11-19T12:51:52.242Z,81.09
2022-11-19T12:54:37.814Z,80.84
2022-11-19T12:57:07.320Z,80.12
2022-11-19T12:59:37.442Z,80.71
2022-11-19T13:02:08.017Z,80.21
2022-11-19T13:04:54.889Z,80.49
2022-11-19T13:07:27.016Z,80.10
2022-11-19T13:09:59.867Z,80.48
2022-11-19T13:12:32.443Z,80.50
2022-11-19T13:15:02.856Z,79.71
2022-11-19T13:17:31.387Z,79.87
2022-11-19T13:20:04.316Z,80.17
2022-11-19T13:22:36.427Z,80.34
2022-11-19T13:25:15.223Z,79.88
2022-11-19T13:27:43.391Z,80.16
2022-11-19T13:30:23.850Z,80.19
2022-11-19T13:32:59.029Z,79.58
2022-11-19T13:35:29.118Z,79.40
2022-11-19T13:38:16.055Z,80.22
2022-11-19T13:40:49.636Z,79.48
2022-11-19T13:43:39.056Z,79.87
2022-11-19T13:46:08.472Z,79.38
2022-11-19T13:48:39.753Z,80.15
2022-11-19T13:51:09.922Z,80.51
2022-11-19T13:53:44.351Z,80.28
2022-11-19T13:56:14.696Z,80.28
2022-11-19T13:58:45.944Z,80.39
2022-11-19T14:01:15.627Z,80.24
2022-11-19T14:03:48.443Z,79.81
2022-11-19T14:06:29.727Z,79.72
2022-11-19T14:08:56.258Z,80.20
2022-11-19T14:11:22.853Z,80.45
2022-11-19T14:14:35.497Z,79.83
2022-11-19T14:17:31.044Z,80.03
2022-11-19T14:20:16.551Z,80.12
2022-11-19T14:23:12.349Z,80.57
2022-11-19T14:26:09.714Z,80.34
2022-11-19T14:28:51.458Z,80.30
2022-11-19T14:31:18.781Z,80.45
2022-11-19T14:33:48.385Z,80.55
2022-11-19T14:36:17.232Z,80.03
2022-11-19T14:38:47.679Z,79.92
2022-11-19T14:41:16.135Z,80.50
2022-11-19T14:44:08.286Z,80.40
2022-11-19T14:46:35.924Z,80.47
2022-11-19T14:49:04.532Z,80.13
2022-11-19T14:51:34.143Z,80.38
2022-11-19T14:54:03.687Z,80.72
2022-11-19T14:56:31.002Z,80.67
2022-11-19T14:59:04.580Z,80.71
2022-11-19T15:01:31.214Z,81.09
2022-11-19T15:04:00.025Z,81.42
2022-11-19T15:06:29.248Z,81.09
2022-11-19T15:09:00.830Z,81.08
2022-11-19T15:11:45.940Z,81.16
2022-11-19T15:14:34.329Z,81.03
2022-11-19T15:17:06.499Z,81.04
2022-11-19T15:19:33.079Z,81.48
2022-11-19T15:22:18.221Z,81.21
2022-11-19T15:24:56.384Z,81.07
2022-11-19T15:27:32.196Z,81.21
2022-11-19T15:30:17.297Z,80.97
2022-11-19T15:33:04.230Z,80.88
2022-11-19T15:35:49.671Z,80.97
2022-11-19T15:38:22.744Z,81.29
2022-11-19T15:40:54.640Z,81.24
2022-11-19T15:43:27.466Z,81.20
2022-11-19T15:45:55.454Z,81.30
2022-11-19T15:48:31.145Z,80.85
2022-11-19T15:50:57.901Z,81.10
2022-11-19T15:53:24.682Z,81.38
2022-11-19T15:56:08.682Z,80.84
2022-11-19T15:58:40.230Z,80.81
2022-11-19T16:01:08.964Z,81.11
2022-11-19T16:03:37.949Z,81.06
2022-11-19T16:06:09.391Z,80.93
2022-11-19T16:08:36.509Z,81.19
2022-11-19T16:11:24.660Z,81.10
2022-11-19T16:14:11.162Z,80.86
2022-11-19T16:16:57.354Z,81.19
2022-11-19T16:19:23.967Z,81.03
2022-11-19T16:21:55.451Z,81.01
2022-11-19T16:24:42.769Z,81.09
2022-11-19T16:27:10.944Z,80.85
2022-11-19T16:29:40.254Z,81.26
2022-11-19T16:32:08.266Z,81.06
2022-11-19T16:34:36.989Z,81.16
2022-11-19T16:37:03.701Z,81.29
2022-11-19T16:39:31.386Z,81.38
2022-11-19T16:42:18.031Z,81.62
2022-11-19T16:44:49.073Z,81.45
2022-11-19T16:47:28.655Z,81.52
2022-11-19T16:49:58.257Z,81.70
2022-11-19T16:52:37.173Z,81.57
2022-11-19T16:55:05.244Z,81.49
2022-11-19T16:57:32.626Z,81.26
2022-11-19T17:00:00.266Z,81.40
2022-11-19T17:02:31.524Z,81.45
2022-11-19T17:05:04.577Z,81.41
2022-11-19T17:07:33.582Z,81.34
2022-11-19T17:10:07.913Z,81.28
2022-11-19T17:12:34.890Z,80.92
2022-11-19T17:15:02.420Z,81.01
2022-11-19T17:17:40.287Z,81.47
2022-11-19T17:20:27.045Z,82.16
2022-11-19T17:22:54.293Z,82.47
2022-11-19T17:25:21.040Z,82.84
2022-11-19T17:27:58.670Z,82.92
2022-11-19T17:30:26.771Z,82.62
2022-11-19T17:32:55.922Z,82.81
2022-11-19T17:35:42.040Z,82.82
2022-11-19T17:38:08.723Z,82.24
2022-11-19T17:40:36.022Z,82.04
2022-11-19T17:43:29.063Z,82.27
2022-11-19T17:45:56.125Z,81.83
2022-11-19T17:48:26.785Z,82.40
2022-11-19T17:50:54.585Z,82.35
2022-11-19T17:56:11.539Z,82.33
2022-11-19T18:01:19.443Z,82.49
2022-11-19T18:03:47.718Z,82.95
2022-11-19T18:06:22.182Z,82.68
2022-11-19T18:08:51.600Z,83.06
2022-11-19T18:11:22.457Z,82.92
2022-11-19T18:13:50.544Z,82.84
2022-11-19T18:16:18.574Z,83.20
2022-11-19T18:18:45.272Z,83.15
2022-11-19T18:21:12.895Z,83.17
2022-11-19T18:23:41.006Z,82.99
2022-11-19T18:26:15.048Z,83.23
2022-11-19T18:28:44.962Z,82.75
2022-11-19T18:31:19.034Z,82.89
2022-11-19T18:33:47.988Z,83.18
2022-11-19T18:36:14.865Z,83.16
2022-11-19T18:38:50.146Z,82.92
2022-11-19T18:41:19.334Z,82.76
2022-11-19T18:44:04.698Z,82.50
2022-11-19T18:46:31.591Z,82.78
2022-11-19T18:48:58.160Z,82.39
2022-11-19T18:51:25.447Z,82.57
2022-11-19T18:53:52.002Z,82.22
2022-11-19T19:02:09.829Z,82.97
2022-11-19T19:09:08.008Z,82.24
2022-11-19T21:51:34.402Z,81.83
2022-11-19T21:56:41.367Z,82.36
2022-11-19T21:59:07.935Z,82.52
2022-11-19T22:01:34.530Z,81.73
2022-11-19T22:04:01.155Z,82.00
2022-11-19T22:06:28.212Z,82.04
2022-11-19T22:08:55.396Z,82.34
2022-11-19T22:11:31.545Z,82.21
2022-11-19T22:14:02.846Z,81.86
2022-11-19T22:16:31.368Z,81.86
2022-11-19T22:18:57.963Z,81.96
2022-11-19T22:21:26.101Z,82.18
2022-11-19T22:23:52.874Z,81.85
2022-11-19T22:26:19.517Z,82.43
2022-11-19T22:28:46.983Z,82.46
2022-11-19T22:31:14.325Z,82.52
2022-11-19T22:33:41.695Z,82.27
2022-11-19T22:36:10.582Z,82.69
2022-11-19T22:38:38.127Z,82.43
2022-11-19T22:41:13.107Z,82.46
2022-11-19T22:43:40.908Z,82.27
2022-11-19T22:46:08.937Z,82.74
2022-11-19T22:48:36.503Z,82.14
2022-11-19T22:51:08.755Z,82.46
2022-11-19T22:53:38.818Z,82.50
2022-11-19T22:56:07.685Z,82.17
2022-11-19T22:58:35.138Z,82.29
2022-11-19T23:01:01.679Z,82.13
2022-11-19T23:03:28.186Z,82.46
2022-11-19T23:05:55.625Z,82.58
2022-11-19T23:08:22.849Z,82.39
2022-11-19T23:10:59.383Z,82.69
2022-11-19T23:13:32.059Z,82.56
2022-11-19T23:16:06.860Z,82.99
2022-11-19T23:18:36.822Z,83.05
2022-11-19T23:21:12.114Z,82.77
2022-11-19T23:23:39.103Z,82.86
2022-11-19T23:26:07.404Z,82.62
2022-11-19T23:28:35.383Z,82.44
2022-11-19T23:31:05.448Z,82.36
2022-11-19T23:33:33.249Z,82.21
2022-11-19T23:36:05.012Z,81.80
2022-11-19T23:38:31.746Z,82.21
2022-11-19T23:40:59.792Z,82.84
2022-11-19T23:43:27.202Z,82.87
2022-11-19T23:45:54.857Z,83.04
2022-11-19T23:48:21.369Z,83.06
2022-11-19T23:50:47.986Z,83.06
2022-11-19T23:53:14.497Z,83.16
2022-11-19T23:55:45.735Z,83.16
2022-11-19T23:58:12.519Z,82.68
